WEATHER THE CAUSE

triple7

Well-Known Member
THIS WEATHER LOOKS SICK....!!!

IDENTIFICATION
Regis#: 56LT Make/Model: FA50 Description: FALCON 50, MYSTÈRE 50
Date: 03/05/2004 Time: 0259

Event Type: Incident Highest Injury: None Mid Air: N Missing: N
Damage: None

LOCATION
City: DENVER State: CO Country: US

DESCRIPTION
ACFT ON LANDING RUNWAY 29R, SLID OFF THE RUNWAY AT JEFFCO AIRPORT, DENVER,
CO

INJURY DATA Total Fatal: 0
# Crew: 2 Fat: 0 Ser: 0 Min: 0 Unk:
# Pass: 0 Fat: 0 Ser: 0 Min: 0 Unk:
# Grnd: Fat: 0 Ser: 0 Min: 0 Unk:

WEATHER: 2050Z 35012KT 1/8SM SN FZFG VV001 M01/M01 A2965



OTHER DATA
Activity: Unknown Phase: Landing Operation: General Aviation

Departed: UNK Dep Date: Dep. Time:
Destination: DENVER, CO Flt Plan: IFR Wx Briefing: U
Last Radio Cont: LOCAL CONTROL
Last Clearance: CLRD TO LAND

FAA FSDO: DENVER, CO (NM03) Entry date: 03/05/2004
 

A300Capt

Freight Dawg
[ QUOTE ]
THIS WEATHER LOOKS SICK....!!!


[/ QUOTE ]

[ QUOTE ]
WEATHER: 2050Z 35012KT 1/8SM SN FZFG VV001 M01/M01 A2965

[/ QUOTE ]

??

Not unusual in DEN.
 

rausda27

Well-Known Member
Todays weather where I work...

KHWV 051956Z AUTO 10007KT 060V150 1/4SM FG OVC001 07/07 A2996 RMK AO2 SLP144 T00670067

KISP 052006Z 14007KT 1/8SM R06/2000V2200FT -DZ FG VV001 07/07 A2993 RMK AO2 SFC VIS 1/4 P0000

YEAHHHH!!!!
 

BobDDuck

Island Bus Driver
My XC flight got scrubed today because 25021G32K. Oh well. There's always next week.

Ethan
 
Top